sensor_id;sensor_type;location;lat;lon;timestamp;temperature;humidity
15288;DHT22;7745;48.708;9.026;2022-12-19T00:01:32;-0.70;99.90
15288;DHT22;7745;48.708;9.026;2022-12-19T00:04:01;-1.10;99.90
15288;DHT22;7745;48.708;9.026;2022-12-19T00:06:29;-0.30;99.90
15288;DHT22;7745;48.708;9.026;2022-12-19T00:08:58;-0.60;99.90
15288;DHT22;7745;48.708;9.026;2022-12-19T00:11:26;-0.80;99.90
15288;DHT22;7745;48.708;9.026;2022-12-19T00:13:53;-0.30;99.90
15288;DHT22;7745;48.708;9.026;2022-12-19T00:16:22;-0.80;99.90
15288;DHT22;7745;48.708;9.026;2022-12-19T00:18:54;-1.20;99.90
15288;DHT22;7745;48.708;9.026;2022-12-19T00:21:23;-1.00;99.90
15288;DHT22;7745;48.708;9.026;2022-12-19T00:23:50;-1.00;99.90
15288;DHT22;7745;48.708;9.026;2022-12-19T00:26:19;-0.70;99.90
15288;DHT22;7745;48.708;9.026;2022-12-19T00:28:49;-0.50;99.90
15288;DHT22;7745;48.708;9.026;2022-12-19T00:31:18;-0.50;99.90
15288;DHT22;7745;48.708;9.026;2022-12-19T00:33:46;-0.90;99.90
15288;DHT22;7745;48.708;9.026;2022-12-19T00:36:17;-0.60;99.90
15288;DHT22;7745;48.708;9.026;2022-12-19T00:38:44;-0.90;99.90
15288;DHT22;7745;48.708;9.026;2022-12-19T00:41:16;-0.50;99.90
15288;DHT22;7745;48.708;9.026;2022-12-19T00:43:44;-0.50;99.90
15288;DHT22;7745;48.708;9.026;2022-12-19T00:46:12;-1.00;99.90
15288;DHT22;7745;48.708;9.026;2022-12-19T00:48:43;-0.70;99.90
15288;DHT22;7745;48.708;9.026;2022-12-19T00:51:11;-0.90;99.90
15288;DHT22;7745;48.708;9.026;2022-12-19T00:53:40;-0.60;99.90
15288;DHT22;7745;48.708;9.026;2022-12-19T00:56:19;-0.90;99.90
15288;DHT22;7745;48.708;9.026;2022-12-19T00:58:50;-1.00;99.90
15288;DHT22;7745;48.708;9.026;2022-12-19T01:01:20;-0.60;99.90
15288;DHT22;7745;48.708;9.026;2022-12-19T01:03:48;-0.90;99.90
15288;DHT22;7745;48.708;9.026;2022-12-19T01:06:20;-0.80;99.90
15288;DHT22;7745;48.708;9.026;2022-12-19T01:08:50;-0.90;99.90
15288;DHT22;7745;48.708;9.026;2022-12-19T01:11:20;-0.90;99.90
15288;DHT22;7745;48.708;9.026;2022-12-19T01:14:12;-0.90;99.90
15288;DHT22;7745;48.708;9.026;2022-12-19T01:16:38;-0.60;99.90
15288;DHT22;7745;48.708;9.026;2022-12-19T01:19:05;-0.50;99.90
15288;DHT22;7745;48.708;9.026;2022-12-19T01:21:35;-0.60;99.90
15288;DHT22;7745;48.708;9.026;2022-12-19T01:24:09;-0.50;99.90
15288;DHT22;7745;48.708;9.026;2022-12-19T01:26:38;-0.50;99.90
15288;DHT22;7745;48.708;9.026;2022-12-19T01:29:16;-0.70;99.90
15288;DHT22;7745;48.708;9.026;2022-12-19T01:31:45;-0.80;99.90
15288;DHT22;7745;48.708;9.026;2022-12-19T01:34:14;-0.50;99.90
15288;DHT22;7745;48.708;9.026;2022-12-19T01:36:59;-0.70;99.90
15288;DHT22;7745;48.708;9.026;2022-12-19T01:39:37;-0.70;99.90
15288;DHT22;7745;48.708;9.026;2022-12-19T01:42:13;-0.30;99.90
15288;DHT22;7745;48.708;9.026;2022-12-19T01:47:43;-0.30;99.90
15288;DHT22;7745;48.708;9.026;2022-12-19T01:50:14;0.10;99.90
15288;DHT22;7745;48.708;9.026;2022-12-19T01:52:46;-0.20;99.90
15288;DHT22;7745;48.708;9.026;2022-12-19T01:55:17;-0.20;99.90
15288;DHT22;7745;48.708;9.026;2022-12-19T01:57:44;-0.40;99.90
15288;DHT22;7745;48.708;9.026;2022-12-19T02:00:13;-0.30;99.90
15288;DHT22;7745;48.708;9.026;2022-12-19T02:02:43;-0.40;99.90
15288;DHT22;7745;48.708;9.026;2022-12-19T02:05:12;-0.30;99.90
15288;DHT22;7745;48.708;9.026;2022-12-19T02:07:39;-0.40;99.90
15288;DHT22;7745;48.708;9.026;2022-12-19T02:10:09;-0.30;99.90
15288;DHT22;7745;48.708;9.026;2022-12-19T02:12:41;-0.20;99.90
15288;DHT22;7745;48.708;9.026;2022-12-19T02:15:10;0.00;99.90
15288;DHT22;7745;48.708;9.026;2022-12-19T02:17:43;-0.40;99.90
15288;DHT22;7745;48.708;9.026;2022-12-19T02:20:41;-0.10;99.90
15288;DHT22;7745;48.708;9.026;2022-12-19T02:26:44;-0.40;99.90
15288;DHT22;7745;48.708;9.026;2022-12-19T02:29:26;-0.40;99.90
15288;DHT22;7745;48.708;9.026;2022-12-19T02:32:03;-0.50;99.90
15288;DHT22;7745;48.708;9.026;2022-12-19T02:34:35;-0.40;99.90
15288;DHT22;7745;48.708;9.026;2022-12-19T02:37:07;-0.10;99.90
15288;DHT22;7745;48.708;9.026;2022-12-19T02:39:41;-0.30;99.90
15288;DHT22;7745;48.708;9.026;2022-12-19T02:42:16;-0.10;99.90
15288;DHT22;7745;48.708;9.026;2022-12-19T02:44:49;-0.30;99.90
15288;DHT22;7745;48.708;9.026;2022-12-19T02:47:19;0.10;99.90
15288;DHT22;7745;48.708;9.026;2022-12-19T02:49:49;-0.10;99.90
15288;DHT22;7745;48.708;9.026;2022-12-19T02:52:47;-0.30;99.90
15288;DHT22;7745;48.708;9.026;2022-12-19T02:55:20;-0.40;99.90
15288;DHT22;7745;48.708;9.026;2022-12-19T02:58:20;0.40;99.90
15288;DHT22;7745;48.708;9.026;2022-12-19T03:01:03;0.20;99.90
15288;DHT22;7745;48.708;9.026;2022-12-19T03:03:49;0.00;99.90
15288;DHT22;7745;48.708;9.026;2022-12-19T03:06:41;0.10;99.90
15288;DHT22;7745;48.708;9.026;2022-12-19T03:12:20;0.30;99.90
15288;DHT22;7745;48.708;9.026;2022-12-19T03:14:50;0.30;99.90
15288;DHT22;7745;48.708;9.026;2022-12-19T03:17:21;0.00;99.90
15288;DHT22;7745;48.708;9.026;2022-12-19T03:19:52;0.60;99.90
15288;DHT22;7745;48.708;9.026;2022-12-19T03:22:21;0.30;99.90
15288;DHT22;7745;48.708;9.026;2022-12-19T03:25:00;0.10;99.90
15288;DHT22;7745;48.708;9.026;2022-12-19T03:27:59;0.20;99.90
15288;DHT22;7745;48.708;9.026;2022-12-19T03:30:31;0.10;99.90
15288;DHT22;7745;48.708;9.026;2022-12-19T03:33:05;0.20;99.90
15288;DHT22;7745;48.708;9.026;2022-12-19T03:35:36;0.30;99.90
15288;DHT22;7745;48.708;9.026;2022-12-19T03:38:09;0.40;99.90
15288;DHT22;7745;48.708;9.026;2022-12-19T03:40:38;0.70;99.90
15288;DHT22;7745;48.708;9.026;2022-12-19T03:43:08;0.50;99.90
15288;DHT22;7745;48.708;9.026;2022-12-19T03:45:44;0.60;99.90
15288;DHT22;7745;48.708;9.026;2022-12-19T03:48:25;0.70;99.90
15288;DHT22;7745;48.708;9.026;2022-12-19T03:51:10;0.40;99.90
15288;DHT22;7745;48.708;9.026;2022-12-19T03:53:59;0.90;99.90
15288;DHT22;7745;48.708;9.026;2022-12-19T03:56:32;0.40;99.90
15288;DHT22;7745;48.708;9.026;2022-12-19T03:59:05;0.60;99.90
15288;DHT22;7745;48.708;9.026;2022-12-19T04:01:37;0.80;99.90
15288;DHT22;7745;48.708;9.026;2022-12-19T04:04:06;0.50;99.90
15288;DHT22;7745;48.708;9.026;2022-12-19T04:06:36;1.00;99.90
15288;DHT22;7745;48.708;9.026;2022-12-19T04:09:04;0.60;99.90
15288;DHT22;7745;48.708;9.026;2022-12-19T04:11:38;0.80;99.90
15288;DHT22;7745;48.708;9.026;2022-12-19T04:14:13;0.50;99.90
15288;DHT22;7745;48.708;9.026;2022-12-19T04:16:55;1.00;99.90
15288;DHT22;7745;48.708;9.026;2022-12-19T04:19:56;0.50;99.90
15288;DHT22;7745;48.708;9.026;2022-12-19T04:56:26;0.90;99.90
15288;DHT22;7745;48.708;9.026;2022-12-19T04:59:10;0.90;99.90
15288;DHT22;7745;48.708;9.026;2022-12-19T05:01:38;0.90;99.90
15288;DHT22;7745;48.708;9.026;2022-12-19T05:04:04;1.40;99.90
15288;DHT22;7745;48.708;9.026;2022-12-19T05:06:31;1.60;99.90
15288;DHT22;7745;48.708;9.026;2022-12-19T05:08:58;0.90;99.90
15288;DHT22;7745;48.708;9.026;2022-12-19T05:11:26;1.00;99.90
15288;DHT22;7745;48.708;9.026;2022-12-19T05:13:53;1.50;99.90
15288;DHT22;7745;48.708;9.026;2022-12-19T05:16:20;1.30;99.90
15288;DHT22;7745;48.708;9.026;2022-12-19T05:18:47;1.40;99.90
15288;DHT22;7745;48.708;9.026;2022-12-19T05:21:14;1.20;99.90
15288;DHT22;7745;48.708;9.026;2022-12-19T05:23:41;1.20;99.90
15288;DHT22;7745;48.708;9.026;2022-12-19T05:26:10;1.10;99.90
15288;DHT22;7745;48.708;9.026;2022-12-19T05:28:39;1.20;99.90
15288;DHT22;7745;48.708;9.026;2022-12-19T05:31:08;1.50;99.90
15288;DHT22;7745;48.708;9.026;2022-12-19T05:33:36;1.00;99.90
15288;DHT22;7745;48.708;9.026;2022-12-19T05:36:03;1.40;99.90
15288;DHT22;7745;48.708;9.026;2022-12-19T05:38:30;1.00;99.90
15288;DHT22;7745;48.708;9.026;2022-12-19T05:40:57;1.30;99.90
15288;DHT22;7745;48.708;9.026;2022-12-19T05:43:26;1.10;99.90
15288;DHT22;7745;48.708;9.026;2022-12-19T05:45:54;1.00;99.90
15288;DHT22;7745;48.708;9.026;2022-12-19T05:48:22;1.00;99.90
15288;DHT22;7745;48.708;9.026;2022-12-19T05:50:49;1.70;99.90
15288;DHT22;7745;48.708;9.026;2022-12-19T05:53:16;1.80;99.90
15288;DHT22;7745;48.708;9.026;2022-12-19T05:55:44;1.20;99.90
15288;DHT22;7745;48.708;9.026;2022-12-19T05:58:10;1.10;99.90
15288;DHT22;7745;48.708;9.026;2022-12-19T06:00:37;1.10;99.90
15288;DHT22;7745;48.708;9.026;2022-12-19T06:03:06;1.40;99.90
15288;DHT22;7745;48.708;9.026;2022-12-19T06:05:36;1.20;99.90
15288;DHT22;7745;48.708;9.026;2022-12-19T06:08:03;1.60;99.90
15288;DHT22;7745;48.708;9.026;2022-12-19T06:10:30;1.20;99.90
15288;DHT22;7745;48.708;9.026;2022-12-19T06:16:10;1.20;99.90
15288;DHT22;7745;48.708;9.026;2022-12-19T06:18:44;1.20;99.90
15288;DHT22;7745;48.708;9.026;2022-12-19T06:21:13;1.40;99.90
15288;DHT22;7745;48.708;9.026;2022-12-19T06:23:49;1.70;99.90
15288;DHT22;7745;48.708;9.026;2022-12-19T06:26:19;1.20;99.90
15288;DHT22;7745;48.708;9.026;2022-12-19T06:47:39;1.20;99.90
15288;DHT22;7745;48.708;9.026;2022-12-19T06:50:06;1.40;99.90
15288;DHT22;7745;48.708;9.026;2022-12-19T06:52:33;1.30;99.90
15288;DHT22;7745;48.708;9.026;2022-12-19T06:55:00;1.30;99.90
15288;DHT22;7745;48.708;9.026;2022-12-19T06:57:31;1.50;99.90
15288;DHT22;7745;48.708;9.026;2022-12-19T06:59:58;1.30;99.90
15288;DHT22;7745;48.708;9.026;2022-12-19T07:02:31;1.70;99.90
15288;DHT22;7745;48.708;9.026;2022-12-19T07:05:02;1.40;99.90
15288;DHT22;7745;48.708;9.026;2022-12-19T07:07:36;1.40;99.90
15288;DHT22;7745;48.708;9.026;2022-12-19T07:10:17;1.20;99.90
15288;DHT22;7745;48.708;9.026;2022-12-19T07:12:44;1.90;99.90
15288;DHT22;7745;48.708;9.026;2022-12-19T07:15:11;1.70;99.90
15288;DHT22;7745;48.708;9.026;2022-12-19T07:17:38;1.90;99.90
15288;DHT22;7745;48.708;9.026;2022-12-19T07:20:07;1.40;99.90
15288;DHT22;7745;48.708;9.026;2022-12-19T07:54:48;2.00;99.90
15288;DHT22;7745;48.708;9.026;2022-12-19T08:00:56;1.70;99.90
15288;DHT22;7745;48.708;9.026;2022-12-19T08:06:50;1.80;99.90
15288;DHT22;7745;48.708;9.026;2022-12-19T08:25:06;2.00;99.90
15288;DHT22;7745;48.708;9.026;2022-12-19T08:27:44;2.10;99.90
15288;DHT22;7745;48.708;9.026;2022-12-19T08:30:12;2.10;99.90
15288;DHT22;7745;48.708;9.026;2022-12-19T08:43:04;2.30;99.90
15288;DHT22;7745;48.708;9.026;2022-12-19T08:45:34;2.40;99.90
15288;DHT22;7745;48.708;9.026;2022-12-19T08:51:26;2.00;99.90
15288;DHT22;7745;48.708;9.026;2022-12-19T08:54:42;2.50;99.90
15288;DHT22;7745;48.708;9.026;2022-12-19T09:08:58;2.80;99.90
15288;DHT22;7745;48.708;9.026;2022-12-19T09:11:25;2.90;99.90
15288;DHT22;7745;48.708;9.026;2022-12-19T09:13:54;2.80;99.90
15288;DHT22;7745;48.708;9.026;2022-12-19T09:16:24;3.00;99.90
15288;DHT22;7745;48.708;9.026;2022-12-19T09:19:12;2.80;99.90
15288;DHT22;7745;48.708;9.026;2022-12-19T09:21:41;2.90;99.90
15288;DHT22;7745;48.708;9.026;2022-12-19T09:24:12;3.20;99.90
15288;DHT22;7745;48.708;9.026;2022-12-19T09:30:15;3.30;99.90
15288;DHT22;7745;48.708;9.026;2022-12-19T09:36:46;3.40;99.90
15288;DHT22;7745;48.708;9.026;2022-12-19T09:39:51;3.40;99.90
15288;DHT22;7745;48.708;9.026;2022-12-19T09:46:27;3.50;99.90
15288;DHT22;7745;48.708;9.026;2022-12-19T09:52:39;3.40;99.90
15288;DHT22;7745;48.708;9.026;2022-12-19T09:55:24;4.00;99.90
15288;DHT22;7745;48.708;9.026;2022-12-19T09:58:24;3.70;99.90
15288;DHT22;7745;48.708;9.026;2022-12-19T10:01:47;4.00;99.90
15288;DHT22;7745;48.708;9.026;2022-12-19T10:04:23;4.30;99.90
15288;DHT22;7745;48.708;9.026;2022-12-19T10:07:17;4.10;99.90
15288;DHT22;7745;48.708;9.026;2022-12-19T10:10:01;4.10;99.90
15288;DHT22;7745;48.708;9.026;2022-12-19T10:15:56;4.30;99.90
15288;DHT22;7745;48.708;9.026;2022-12-19T10:19:19;4.00;99.90
15288;DHT22;7745;48.708;9.026;2022-12-19T10:22:15;4.40;99.90
15288;DHT22;7745;48.708;9.026;2022-12-19T10:31:52;3.80;99.90
15288;DHT22;7745;48.708;9.026;2022-12-19T10:34:22;4.30;99.90
15288;DHT22;7745;48.708;9.026;2022-12-19T10:36:51;4.30;99.90
15288;DHT22;7745;48.708;9.026;2022-12-19T10:39:26;4.80;99.90
15288;DHT22;7745;48.708;9.026;2022-12-19T10:42:01;4.40;99.90
15288;DHT22;7745;48.708;9.026;2022-12-19T10:44:33;4.80;99.90
15288;DHT22;7745;48.708;9.026;2022-12-19T10:47:29;4.60;99.90
15288;DHT22;7745;48.708;9.026;2022-12-19T10:49:59;4.30;99.90
15288;DHT22;7745;48.708;9.026;2022-12-19T10:52:46;4.40;99.90
15288;DHT22;7745;48.708;9.026;2022-12-19T10:55:41;4.60;99.90
15288;DHT22;7745;48.708;9.026;2022-12-19T10:58:22;5.10;99.90
15288;DHT22;7745;48.708;9.026;2022-12-19T11:01:11;4.80;99.90
15288;DHT22;7745;48.708;9.026;2022-12-19T11:04:24;4.60;99.90
15288;DHT22;7745;48.708;9.026;2022-12-19T11:13:58;4.90;99.90
15288;DHT22;7745;48.708;9.026;2022-12-19T11:16:34;5.00;99.90
15288;DHT22;7745;48.708;9.026;2022-12-19T11:19:18;5.20;99.90
15288;DHT22;7745;48.708;9.026;2022-12-19T11:22:02;4.80;99.90
15288;DHT22;7745;48.708;9.026;2022-12-19T11:24:48;4.70;99.90
15288;DHT22;7745;48.708;9.026;2022-12-19T11:27:35;5.30;99.90
15288;DHT22;7745;48.708;9.026;2022-12-19T11:30:20;4.90;99.90
15288;DHT22;7745;48.708;9.026;2022-12-19T11:33:11;5.20;99.90
15288;DHT22;7745;48.708;9.026;2022-12-19T11:36:33;5.10;99.90
15288;DHT22;7745;48.708;9.026;2022-12-19T11:39:32;5.00;99.90
15288;DHT22;7745;48.708;9.026;2022-12-19T11:42:15;5.00;99.90
15288;DHT22;7745;48.708;9.026;2022-12-19T11:45:37;5.00;99.90
15288;DHT22;7745;48.708;9.026;2022-12-19T11:48:34;5.10;99.90
15288;DHT22;7745;48.708;9.026;2022-12-19T11:51:11;5.10;99.90
15288;DHT22;7745;48.708;9.026;2022-12-19T11:54:13;5.30;99.90
15288;DHT22;7745;48.708;9.026;2022-12-19T12:14:46;5.60;99.90
15288;DHT22;7745;48.708;9.026;2022-12-19T12:29:16;5.40;99.90
15288;DHT22;7745;48.708;9.026;2022-12-19T12:32:00;5.60;99.90
15288;DHT22;7745;48.708;9.026;2022-12-19T12:35:10;5.30;99.90
15288;DHT22;7745;48.708;9.026;2022-12-19T12:48:30;5.50;99.90
15288;DHT22;7745;48.708;9.026;2022-12-19T12:51:31;5.50;99.90
15288;DHT22;7745;48.708;9.026;2022-12-19T13:01:37;5.80;99.90
15288;DHT22;7745;48.708;9.026;2022-12-19T13:10:55;6.70;99.90
15288;DHT22;7745;48.708;9.026;2022-12-19T13:13:51;6.00;99.90
15288;DHT22;7745;48.708;9.026;2022-12-19T13:16:49;6.00;99.90
15288;DHT22;7745;48.708;9.026;2022-12-19T13:19:26;6.00;99.90
15288;DHT22;7745;48.708;9.026;2022-12-19T13:28:40;5.70;99.90
15288;DHT22;7745;48.708;9.026;2022-12-19T13:38:15;5.80;99.90
15288;DHT22;7745;48.708;9.026;2022-12-19T13:41:01;5.40;99.90
15288;DHT22;7745;48.708;9.026;2022-12-19T13:43:56;5.30;99.90
15288;DHT22;7745;48.708;9.026;2022-12-19T13:46:43;5.30;99.90
15288;DHT22;7745;48.708;9.026;2022-12-19T13:49:29;5.50;99.90
15288;DHT22;7745;48.708;9.026;2022-12-19T13:55:16;5.20;99.90
15288;DHT22;7745;48.708;9.026;2022-12-19T14:04:06;5.30;99.90
15288;DHT22;7745;48.708;9.026;2022-12-19T14:07:23;5.10;99.90
15288;DHT22;7745;48.708;9.026;2022-12-19T14:10:02;5.50;99.90
15288;DHT22;7745;48.708;9.026;2022-12-19T14:12:54;5.00;99.90
15288;DHT22;7745;48.708;9.026;2022-12-19T14:15:46;4.90;99.90
15288;DHT22;7745;48.708;9.026;2022-12-19T14:18:27;4.70;99.90
15288;DHT22;7745;48.708;9.026;2022-12-19T14:21:15;4.90;99.90
15288;DHT22;7745;48.708;9.026;2022-12-19T14:23:48;4.80;99.90
15288;DHT22;7745;48.708;9.026;2022-12-19T14:27:13;4.70;99.90
15288;DHT22;7745;48.708;9.026;2022-12-19T14:29:37;4.70;99.90
15288;DHT22;7745;48.708;9.026;2022-12-19T14:32:48;4.90;99.90
15288;DHT22;7745;48.708;9.026;2022-12-19T14:35:21;4.50;99.90
15288;DHT22;7745;48.708;9.026;2022-12-19T14:37:59;5.00;99.90
15288;DHT22;7745;48.708;9.026;2022-12-19T14:40:27;4.70;99.90
15288;DHT22;7745;48.708;9.026;2022-12-19T14:43:01;5.10;99.90
15288;DHT22;7745;48.708;9.026;2022-12-19T14:45:46;4.60;99.90
15288;DHT22;7745;48.708;9.026;2022-12-19T14:48:26;4.90;99.90
15288;DHT22;7745;48.708;9.026;2022-12-19T14:51:13;4.60;99.90
15288;DHT22;7745;48.708;9.026;2022-12-19T14:54:05;4.70;99.90
15288;DHT22;7745;48.708;9.026;2022-12-19T14:56:45;4.60;99.90
15288;DHT22;7745;48.708;9.026;2022-12-19T14:59:30;4.60;99.90
15288;DHT22;7745;48.708;9.026;2022-12-19T15:02:14;4.50;99.90
15288;DHT22;7745;48.708;9.026;2022-12-19T15:04:48;4.50;99.90
15288;DHT22;7745;48.708;9.026;2022-12-19T15:07:34;4.50;99.90
15288;DHT22;7745;48.708;9.026;2022-12-19T15:10:12;4.30;99.90
15288;DHT22;7745;48.708;9.026;2022-12-19T15:12:49;4.30;99.90
15288;DHT22;7745;48.708;9.026;2022-12-19T15:15:41;4.30;99.90
15288;DHT22;7745;48.708;9.026;2022-12-19T15:18:19;4.10;99.90
15288;DHT22;7745;48.708;9.026;2022-12-19T15:20:49;4.00;99.90
15288;DHT22;7745;48.708;9.026;2022-12-19T15:23:28;4.20;99.90
15288;DHT22;7745;48.708;9.026;2022-12-19T15:26:00;3.70;99.90
15288;DHT22;7745;48.708;9.026;2022-12-19T15:32:33;3.70;99.90
15288;DHT22;7745;48.708;9.026;2022-12-19T15:35:09;3.70;99.90
15288;DHT22;7745;48.708;9.026;2022-12-19T15:37:45;3.60;99.90
15288;DHT22;7745;48.708;9.026;2022-12-19T15:40:22;3.60;99.90
15288;DHT22;7745;48.708;9.026;2022-12-19T15:42:56;3.60;99.90
15288;DHT22;7745;48.708;9.026;2022-12-19T15:45:34;3.70;99.90
15288;DHT22;7745;48.708;9.026;2022-12-19T15:48:19;3.70;99.90
15288;DHT22;7745;48.708;9.026;2022-12-19T15:51:33;3.90;99.90
15288;DHT22;7745;48.708;9.026;2022-12-19T15:54:14;3.50;99.90
15288;DHT22;7745;48.708;9.026;2022-12-19T15:57:19;3.60;99.90
15288;DHT22;7745;48.708;9.026;2022-12-19T15:59:58;4.00;99.90
15288;DHT22;7745;48.708;9.026;2022-12-19T16:09:19;3.30;99.90
15288;DHT22;7745;48.708;9.026;2022-12-19T16:11:52;3.40;99.90
15288;DHT22;7745;48.708;9.026;2022-12-19T16:14:35;3.40;99.90
15288;DHT22;7745;48.708;9.026;2022-12-19T16:20:49;3.30;99.90
15288;DHT22;7745;48.708;9.026;2022-12-19T16:23:20;3.00;99.90
15288;DHT22;7745;48.708;9.026;2022-12-19T16:25:55;3.50;99.90
15288;DHT22;7745;48.708;9.026;2022-12-19T16:28:34;2.70;99.90
15288;DHT22;7745;48.708;9.026;2022-12-19T16:31:24;3.50;99.90
15288;DHT22;7745;48.708;9.026;2022-12-19T16:34:13;3.60;99.90
15288;DHT22;7745;48.708;9.026;2022-12-19T16:36:56;3.50;99.90
15288;DHT22;7745;48.708;9.026;2022-12-19T16:43:48;3.30;99.90
15288;DHT22;7745;48.708;9.026;2022-12-19T16:46:36;3.10;99.90
15288;DHT22;7745;48.708;9.026;2022-12-19T16:55:47;3.30;99.90
15288;DHT22;7745;48.708;9.026;2022-12-19T17:08:36;2.70;99.90
15288;DHT22;7745;48.708;9.026;2022-12-19T17:14:34;3.10;99.90
15288;DHT22;7745;48.708;9.026;2022-12-19T17:20:38;3.20;99.90
15288;DHT22;7745;48.708;9.026;2022-12-19T17:23:12;3.50;99.90
15288;DHT22;7745;48.708;9.026;2022-12-19T17:29:38;3.00;99.90
15288;DHT22;7745;48.708;9.026;2022-12-19T17:32:13;3.60;99.90
15288;DHT22;7745;48.708;9.026;2022-12-19T17:34:45;3.40;99.90
15288;DHT22;7745;48.708;9.026;2022-12-19T17:40:27;3.60;99.90
15288;DHT22;7745;48.708;9.026;2022-12-19T17:42:59;3.30;99.90
15288;DHT22;7745;48.708;9.026;2022-12-19T17:45:33;3.60;99.90
15288;DHT22;7745;48.708;9.026;2022-12-19T17:48:20;3.20;99.90
15288;DHT22;7745;48.708;9.026;2022-12-19T17:50:53;2.90;99.90
15288;DHT22;7745;48.708;9.026;2022-12-19T17:53:23;3.10;99.90
15288;DHT22;7745;48.708;9.026;2022-12-19T17:56:52;3.10;99.90
15288;DHT22;7745;48.708;9.026;2022-12-19T18:03:02;2.90;99.90
15288;DHT22;7745;48.708;9.026;2022-12-19T18:06:07;3.10;99.90
15288;DHT22;7745;48.708;9.026;2022-12-19T18:11:40;3.00;99.90
15288;DHT22;7745;48.708;9.026;2022-12-19T18:14:14;2.80;99.90
15288;DHT22;7745;48.708;9.026;2022-12-19T18:16:53;2.80;99.90
15288;DHT22;7745;48.708;9.026;2022-12-19T18:19:24;2.80;99.90
15288;DHT22;7745;48.708;9.026;2022-12-19T18:22:10;3.20;99.90
15288;DHT22;7745;48.708;9.026;2022-12-19T18:24:43;2.80;99.90
15288;DHT22;7745;48.708;9.026;2022-12-19T18:27:17;2.80;99.90
15288;DHT22;7745;48.708;9.026;2022-12-19T18:29:50;2.90;99.90
15288;DHT22;7745;48.708;9.026;2022-12-19T18:32:34;2.70;99.90
15288;DHT22;7745;48.708;9.026;2022-12-19T18:35:37;2.70;99.90
15288;DHT22;7745;48.708;9.026;2022-12-19T18:38:12;2.80;99.90
15288;DHT22;7745;48.708;9.026;2022-12-19T18:40:45;2.90;99.90
15288;DHT22;7745;48.708;9.026;2022-12-19T18:43:18;2.80;99.90
15288;DHT22;7745;48.708;9.026;2022-12-19T18:45:50;3.20;99.90
15288;DHT22;7745;48.708;9.026;2022-12-19T18:48:51;2.60;99.90
15288;DHT22;7745;48.708;9.026;2022-12-19T18:51:38;2.70;99.90
15288;DHT22;7745;48.708;9.026;2022-12-19T18:54:13;3.00;99.90
15288;DHT22;7745;48.708;9.026;2022-12-19T18:57:46;3.00;99.90
15288;DHT22;7745;48.708;9.026;2022-12-19T19:03:21;3.20;99.90
15288;DHT22;7745;48.708;9.026;2022-12-19T19:06:19;3.00;99.90
15288;DHT22;7745;48.708;9.026;2022-12-19T19:09:27;3.00;99.90
15288;DHT22;7745;48.708;9.026;2022-12-19T19:15:21;3.20;99.90
15288;DHT22;7745;48.708;9.026;2022-12-19T19:17:49;3.10;99.90
15288;DHT22;7745;48.708;9.026;2022-12-19T19:20:22;3.10;99.90
15288;DHT22;7745;48.708;9.026;2022-12-19T19:22:50;3.10;99.90
15288;DHT22;7745;48.708;9.026;2022-12-19T19:25:17;3.20;99.90
15288;DHT22;7745;48.708;9.026;2022-12-19T19:27:45;3.20;99.90
15288;DHT22;7745;48.708;9.026;2022-12-19T19:30:12;3.20;99.90
15288;DHT22;7745;48.708;9.026;2022-12-19T19:32:44;3.20;99.90
15288;DHT22;7745;48.708;9.026;2022-12-19T19:35:14;3.20;99.90
15288;DHT22;7745;48.708;9.026;2022-12-19T19:37:43;3.20;99.90
15288;DHT22;7745;48.708;9.026;2022-12-19T19:40:11;3.30;99.90
15288;DHT22;7745;48.708;9.026;2022-12-19T19:45:14;3.40;99.90
15288;DHT22;7745;48.708;9.026;2022-12-19T19:47:46;3.20;99.90
15288;DHT22;7745;48.708;9.026;2022-12-19T19:50:13;3.40;99.90
15288;DHT22;7745;48.708;9.026;2022-12-19T19:52:40;3.30;99.90
15288;DHT22;7745;48.708;9.026;2022-12-19T19:55:08;3.80;99.90
15288;DHT22;7745;48.708;9.026;2022-12-19T19:57:36;3.30;99.90
15288;DHT22;7745;48.708;9.026;2022-12-19T20:00:04;4.20;99.90
15288;DHT22;7745;48.708;9.026;2022-12-19T20:02:31;3.30;99.90
15288;DHT22;7745;48.708;9.026;2022-12-19T20:04:59;3.40;99.90
15288;DHT22;7745;48.708;9.026;2022-12-19T20:07:26;3.60;99.90
15288;DHT22;7745;48.708;9.026;2022-12-19T20:09:53;3.30;99.90
15288;DHT22;7745;48.708;9.026;2022-12-19T20:12:20;3.40;99.90
15288;DHT22;7745;48.708;9.026;2022-12-19T20:14:47;3.60;99.90
15288;DHT22;7745;48.708;9.026;2022-12-19T20:17:14;3.20;99.90
15288;DHT22;7745;48.708;9.026;2022-12-19T20:19:40;3.20;99.90
15288;DHT22;7745;48.708;9.026;2022-12-19T20:22:09;3.10;99.90
15288;DHT22;7745;48.708;9.026;2022-12-19T20:24:36;3.10;99.90
15288;DHT22;7745;48.708;9.026;2022-12-19T20:27:03;3.10;99.90
15288;DHT22;7745;48.708;9.026;2022-12-19T20:29:30;3.40;99.90
15288;DHT22;7745;48.708;9.026;2022-12-19T20:31:57;3.00;99.90
15288;DHT22;7745;48.708;9.026;2022-12-19T20:34:24;2.90;99.90
15288;DHT22;7745;48.708;9.026;2022-12-19T20:36:51;2.80;99.90
15288;DHT22;7745;48.708;9.026;2022-12-19T20:39:19;3.30;99.90
15288;DHT22;7745;48.708;9.026;2022-12-19T20:41:48;3.20;99.90
15288;DHT22;7745;48.708;9.026;2022-12-19T20:44:15;3.20;99.90
15288;DHT22;7745;48.708;9.026;2022-12-19T20:46:42;2.90;99.90
15288;DHT22;7745;48.708;9.026;2022-12-19T20:49:09;3.20;99.90
15288;DHT22;7745;48.708;9.026;2022-12-19T20:51:37;3.30;99.90
15288;DHT22;7745;48.708;9.026;2022-12-19T20:54:04;3.10;99.90
15288;DHT22;7745;48.708;9.026;2022-12-19T20:56:33;3.30;99.90
15288;DHT22;7745;48.708;9.026;2022-12-19T20:59:00;3.60;99.90
15288;DHT22;7745;48.708;9.026;2022-12-19T21:01:28;3.30;99.90
15288;DHT22;7745;48.708;9.026;2022-12-19T21:03:55;3.60;99.90
15288;DHT22;7745;48.708;9.026;2022-12-19T21:06:22;3.40;99.90
15288;DHT22;7745;48.708;9.026;2022-12-19T21:08:51;3.30;99.90
15288;DHT22;7745;48.708;9.026;2022-12-19T21:11:18;3.80;99.90
15288;DHT22;7745;48.708;9.026;2022-12-19T21:13:47;3.00;99.90
15288;DHT22;7745;48.708;9.026;2022-12-19T21:16:16;3.20;99.90
15288;DHT22;7745;48.708;9.026;2022-12-19T21:18:44;3.40;99.90
15288;DHT22;7745;48.708;9.026;2022-12-19T21:21:13;3.20;99.90
15288;DHT22;7745;48.708;9.026;2022-12-19T21:23:40;3.20;99.90
15288;DHT22;7745;48.708;9.026;2022-12-19T21:26:08;3.20;99.90
15288;DHT22;7745;48.708;9.026;2022-12-19T21:28:35;3.20;99.90
15288;DHT22;7745;48.708;9.026;2022-12-19T21:31:05;3.20;99.90
15288;DHT22;7745;48.708;9.026;2022-12-19T21:33:33;3.40;99.90
15288;DHT22;7745;48.708;9.026;2022-12-19T21:36:05;3.20;99.90
15288;DHT22;7745;48.708;9.026;2022-12-19T21:38:32;3.20;99.90
15288;DHT22;7745;48.708;9.026;2022-12-19T21:41:01;3.20;99.90
15288;DHT22;7745;48.708;9.026;2022-12-19T21:43:29;3.10;99.90
15288;DHT22;7745;48.708;9.026;2022-12-19T21:46:05;3.30;99.90
15288;DHT22;7745;48.708;9.026;2022-12-19T21:48:36;3.20;99.90
15288;DHT22;7745;48.708;9.026;2022-12-19T21:51:04;3.10;99.90
15288;DHT22;7745;48.708;9.026;2022-12-19T21:53:31;3.20;99.90
15288;DHT22;7745;48.708;9.026;2022-12-19T21:56:05;3.20;99.90
15288;DHT22;7745;48.708;9.026;2022-12-19T21:58:33;3.20;99.90
15288;DHT22;7745;48.708;9.026;2022-12-19T22:01:06;3.60;99.90
15288;DHT22;7745;48.708;9.026;2022-12-19T22:03:34;3.30;99.90
15288;DHT22;7745;48.708;9.026;2022-12-19T22:06:01;3.50;99.90
15288;DHT22;7745;48.708;9.026;2022-12-19T22:08:29;3.90;99.90
15288;DHT22;7745;48.708;9.026;2022-12-19T22:10:56;3.40;99.90
15288;DHT22;7745;48.708;9.026;2022-12-19T22:13:24;3.40;99.90
15288;DHT22;7745;48.708;9.026;2022-12-19T22:15:51;3.50;99.90
15288;DHT22;7745;48.708;9.026;2022-12-19T22:18:20;3.60;99.90